sensor_id;sensor_type;location;lat;lon;timestamp;P1;durP1;ratioP1;P2;durP2;ratioP2
52386;SDS011;38317;53.084;6.960;2023-10-09T00:01:07;4.80;;;1.30;;
52386;SDS011;38317;53.084;6.960;2023-10-09T00:03:42;3.22;;;1.20;;
52386;SDS011;38317;53.084;6.960;2023-10-09T00:06:09;6.03;;;1.52;;
52386;SDS011;38317;53.084;6.960;2023-10-09T00:08:38;4.10;;;1.60;;
52386;SDS011;38317;53.084;6.960;2023-10-09T00:11:09;6.43;;;1.80;;
52386;SDS011;38317;53.084;6.960;2023-10-09T00:13:42;6.75;;;1.75;;
52386;SDS011;38317;53.084;6.960;2023-10-09T00:16:16;4.68;;;1.52;;
52386;SDS011;38317;53.084;6.960;2023-10-09T00:18:52;6.63;;;2.20;;
52386;SDS011;38317;53.084;6.960;2023-10-09T00:21:19;6.40;;;2.10;;
52386;SDS011;38317;53.084;6.960;2023-10-09T00:23:48;7.28;;;2.50;;
52386;SDS011;38317;53.084;6.960;2023-10-09T00:26:24;6.68;;;2.20;;
52386;SDS011;38317;53.084;6.960;2023-10-09T00:28:51;6.28;;;2.33;;
52386;SDS011;38317;53.084;6.960;2023-10-09T00:31:17;9.18;;;2.45;;
52386;SDS011;38317;53.084;6.960;2023-10-09T00:33:59;7.20;;;2.13;;
52386;SDS011;38317;53.084;6.960;2023-10-09T00:36:40;7.82;;;2.30;;
52386;SDS011;38317;53.084;6.960;2023-10-09T00:39:15;6.75;;;2.33;;
52386;SDS011;38317;53.084;6.960;2023-10-09T00:41:55;6.95;;;2.33;;
52386;SDS011;38317;53.084;6.960;2023-10-09T00:44:23;9.15;;;2.90;;
52386;SDS011;38317;53.084;6.960;2023-10-09T00:46:51;9.57;;;2.95;;
52386;SDS011;38317;53.084;6.960;2023-10-09T00:49:17;9.15;;;3.15;;
52386;SDS011;38317;53.084;6.960;2023-10-09T00:51:48;8.73;;;3.00;;
52386;SDS011;38317;53.084;6.960;2023-10-09T00:54:21;6.97;;;2.90;;
52386;SDS011;38317;53.084;6.960;2023-10-09T00:56:51;6.97;;;2.85;;
52386;SDS011;38317;53.084;6.960;2023-10-09T00:59:23;6.88;;;3.05;;
52386;SDS011;38317;53.084;6.960;2023-10-09T01:01:50;8.05;;;3.30;;
52386;SDS011;38317;53.084;6.960;2023-10-09T01:04:24;8.45;;;2.95;;
52386;SDS011;38317;53.084;6.960;2023-10-09T01:06:54;8.48;;;3.58;;
52386;SDS011;38317;53.084;6.960;2023-10-09T01:09:39;9.27;;;3.70;;
52386;SDS011;38317;53.084;6.960;2023-10-09T01:12:08;10.95;;;4.00;;
52386;SDS011;38317;53.084;6.960;2023-10-09T01:14:42;11.05;;;3.75;;
52386;SDS011;38317;53.084;6.960;2023-10-09T01:17:08;10.27;;;4.32;;
52386;SDS011;38317;53.084;6.960;2023-10-09T01:19:35;12.73;;;4.63;;
52386;SDS011;38317;53.084;6.960;2023-10-09T01:22:02;11.75;;;4.78;;
52386;SDS011;38317;53.084;6.960;2023-10-09T01:24:38;10.77;;;4.50;;
52386;SDS011;38317;53.084;6.960;2023-10-09T01:27:04;10.07;;;4.30;;
52386;SDS011;38317;53.084;6.960;2023-10-09T01:29:37;11.38;;;4.57;;
52386;SDS011;38317;53.084;6.960;2023-10-09T01:32:05;10.77;;;4.90;;
52386;SDS011;38317;53.084;6.960;2023-10-09T01:34:32;10.60;;;4.65;;
52386;SDS011;38317;53.084;6.960;2023-10-09T01:37:13;11.80;;;4.75;;
52386;SDS011;38317;53.084;6.960;2023-10-09T01:39:54;12.50;;;4.90;;
52386;SDS011;38317;53.084;6.960;2023-10-09T01:42:24;11.13;;;4.75;;
52386;SDS011;38317;53.084;6.960;2023-10-09T01:45:00;12.43;;;5.20;;
52386;SDS011;38317;53.084;6.960;2023-10-09T01:47:55;13.50;;;4.97;;
52386;SDS011;38317;53.084;6.960;2023-10-09T01:50:21;13.85;;;5.65;;
52386;SDS011;38317;53.084;6.960;2023-10-09T01:52:56;11.35;;;4.63;;
52386;SDS011;38317;53.084;6.960;2023-10-09T01:55:22;13.63;;;6.10;;
52386;SDS011;38317;53.084;6.960;2023-10-09T01:57:59;11.77;;;5.50;;
52386;SDS011;38317;53.084;6.960;2023-10-09T02:00:31;12.75;;;5.68;;
52386;SDS011;38317;53.084;6.960;2023-10-09T02:03:00;16.88;;;6.53;;
52386;SDS011;38317;53.084;6.960;2023-10-09T02:05:31;12.70;;;5.90;;
52386;SDS011;38317;53.084;6.960;2023-10-09T02:08:01;14.85;;;6.07;;
52386;SDS011;38317;53.084;6.960;2023-10-09T02:10:29;13.95;;;5.80;;
52386;SDS011;38317;53.084;6.960;2023-10-09T02:13:05;12.75;;;6.05;;
52386;SDS011;38317;53.084;6.960;2023-10-09T02:15:33;16.27;;;6.75;;
52386;SDS011;38317;53.084;6.960;2023-10-09T02:18:14;15.55;;;6.72;;
52386;SDS011;38317;53.084;6.960;2023-10-09T02:20:48;14.80;;;6.55;;
52386;SDS011;38317;53.084;6.960;2023-10-09T02:23:33;13.07;;;5.22;;
52386;SDS011;38317;53.084;6.960;2023-10-09T02:26:06;12.88;;;5.53;;
52386;SDS011;38317;53.084;6.960;2023-10-09T02:28:34;12.27;;;5.85;;
52386;SDS011;38317;53.084;6.960;2023-10-09T02:31:01;11.93;;;5.10;;
52386;SDS011;38317;53.084;6.960;2023-10-09T02:33:37;12.35;;;5.50;;
52386;SDS011;38317;53.084;6.960;2023-10-09T02:36:07;13.15;;;5.88;;
52386;SDS011;38317;53.084;6.960;2023-10-09T02:38:33;12.80;;;5.82;;
52386;SDS011;38317;53.084;6.960;2023-10-09T02:41:05;12.95;;;5.63;;
52386;SDS011;38317;53.084;6.960;2023-10-09T02:43:32;15.18;;;5.72;;
52386;SDS011;38317;53.084;6.960;2023-10-09T02:46:09;12.80;;;5.60;;
52386;SDS011;38317;53.084;6.960;2023-10-09T02:48:44;15.98;;;6.00;;
52386;SDS011;38317;53.084;6.960;2023-10-09T02:51:15;12.90;;;5.85;;
52386;SDS011;38317;53.084;6.960;2023-10-09T02:53:51;13.85;;;6.80;;
52386;SDS011;38317;53.084;6.960;2023-10-09T02:56:17;15.20;;;6.30;;
52386;SDS011;38317;53.084;6.960;2023-10-09T02:58:52;14.93;;;6.80;;
52386;SDS011;38317;53.084;6.960;2023-10-09T03:01:18;15.70;;;6.35;;
52386;SDS011;38317;53.084;6.960;2023-10-09T03:03:44;15.02;;;7.00;;
52386;SDS011;38317;53.084;6.960;2023-10-09T03:06:14;14.52;;;7.35;;
52386;SDS011;38317;53.084;6.960;2023-10-09T03:08:50;17.58;;;7.68;;
52386;SDS011;38317;53.084;6.960;2023-10-09T03:11:16;18.95;;;8.30;;
52386;SDS011;38317;53.084;6.960;2023-10-09T03:13:42;15.40;;;8.02;;
52386;SDS011;38317;53.084;6.960;2023-10-09T03:16:13;16.92;;;7.90;;
52386;SDS011;38317;53.084;6.960;2023-10-09T03:18:52;15.45;;;7.70;;
52386;SDS011;38317;53.084;6.960;2023-10-09T03:21:21;20.05;;;9.00;;
52386;SDS011;38317;53.084;6.960;2023-10-09T03:23:47;21.50;;;9.25;;
52386;SDS011;38317;53.084;6.960;2023-10-09T03:26:17;20.13;;;9.30;;
52386;SDS011;38317;53.084;6.960;2023-10-09T03:28:47;23.08;;;9.68;;
52386;SDS011;38317;53.084;6.960;2023-10-09T03:31:14;21.60;;;10.60;;
52386;SDS011;38317;53.084;6.960;2023-10-09T03:33:40;22.55;;;9.90;;
52386;SDS011;38317;53.084;6.960;2023-10-09T03:36:06;22.80;;;10.68;;
52386;SDS011;38317;53.084;6.960;2023-10-09T03:38:37;21.10;;;9.73;;
52386;SDS011;38317;53.084;6.960;2023-10-09T03:41:06;21.70;;;10.70;;
52386;SDS011;38317;53.084;6.960;2023-10-09T03:43:36;26.13;;;10.23;;
52386;SDS011;38317;53.084;6.960;2023-10-09T03:46:07;21.70;;;11.02;;
52386;SDS011;38317;53.084;6.960;2023-10-09T03:48:46;20.77;;;11.05;;
52386;SDS011;38317;53.084;6.960;2023-10-09T03:51:13;23.52;;;11.68;;
52386;SDS011;38317;53.084;6.960;2023-10-09T03:53:46;22.77;;;11.15;;
52386;SDS011;38317;53.084;6.960;2023-10-09T03:56:13;24.15;;;11.77;;
52386;SDS011;38317;53.084;6.960;2023-10-09T03:58:42;25.58;;;12.30;;
52386;SDS011;38317;53.084;6.960;2023-10-09T04:01:10;26.73;;;13.18;;
52386;SDS011;38317;53.084;6.960;2023-10-09T04:04:02;28.10;;;13.43;;
52386;SDS011;38317;53.084;6.960;2023-10-09T04:06:31;26.80;;;13.40;;
52386;SDS011;38317;53.084;6.960;2023-10-09T04:08:58;25.60;;;12.95;;
52386;SDS011;38317;53.084;6.960;2023-10-09T04:11:27;27.40;;;13.68;;
52386;SDS011;38317;53.084;6.960;2023-10-09T04:13:52;28.70;;;14.80;;
52386;SDS011;38317;53.084;6.960;2023-10-09T04:16:19;26.95;;;14.45;;
52386;SDS011;38317;53.084;6.960;2023-10-09T04:19:00;30.70;;;14.50;;
52386;SDS011;38317;53.084;6.960;2023-10-09T04:21:35;26.13;;;12.98;;
52386;SDS011;38317;53.084;6.960;2023-10-09T04:24:05;27.95;;;14.27;;
52386;SDS011;38317;53.084;6.960;2023-10-09T04:29:02;29.48;;;15.07;;
52386;SDS011;38317;53.084;6.960;2023-10-09T04:31:28;32.95;;;15.65;;
52386;SDS011;38317;53.084;6.960;2023-10-09T04:33:59;31.98;;;16.42;;
52386;SDS011;38317;53.084;6.960;2023-10-09T04:36:51;32.60;;;16.02;;
52386;SDS011;38317;53.084;6.960;2023-10-09T04:39:48;36.45;;;18.42;;
52386;SDS011;38317;53.084;6.960;2023-10-09T04:42:26;37.78;;;16.70;;
52386;SDS011;38317;53.084;6.960;2023-10-09T04:45:04;38.53;;;16.80;;
52386;SDS011;38317;53.084;6.960;2023-10-09T04:47:34;32.38;;;15.98;;
52386;SDS011;38317;53.084;6.960;2023-10-09T04:50:10;31.58;;;15.57;;
52386;SDS011;38317;53.084;6.960;2023-10-09T04:52:37;29.35;;;14.65;;
52386;SDS011;38317;53.084;6.960;2023-10-09T04:55:06;29.85;;;14.57;;
52386;SDS011;38317;53.084;6.960;2023-10-09T04:57:36;34.40;;;16.08;;
52386;SDS011;38317;53.084;6.960;2023-10-09T05:03:01;31.25;;;15.70;;
52386;SDS011;38317;53.084;6.960;2023-10-09T05:05:39;33.55;;;15.57;;
52386;SDS011;38317;53.084;6.960;2023-10-09T05:08:08;32.97;;;15.68;;
52386;SDS011;38317;53.084;6.960;2023-10-09T05:10:53;33.85;;;16.02;;
52386;SDS011;38317;53.084;6.960;2023-10-09T05:13:34;31.80;;;15.60;;
52386;SDS011;38317;53.084;6.960;2023-10-09T05:16:13;31.30;;;16.27;;
52386;SDS011;38317;53.084;6.960;2023-10-09T05:18:52;30.77;;;15.23;;
52386;SDS011;38317;53.084;6.960;2023-10-09T05:21:35;31.88;;;14.40;;
52386;SDS011;38317;53.084;6.960;2023-10-09T05:24:06;34.33;;;16.65;;
52386;SDS011;38317;53.084;6.960;2023-10-09T05:26:42;35.25;;;14.93;;
52386;SDS011;38317;53.084;6.960;2023-10-09T05:29:22;34.40;;;16.50;;
52386;SDS011;38317;53.084;6.960;2023-10-09T05:31:59;31.08;;;15.25;;
52386;SDS011;38317;53.084;6.960;2023-10-09T05:34:41;29.30;;;15.40;;
52386;SDS011;38317;53.084;6.960;2023-10-09T05:37:26;29.67;;;15.23;;
52386;SDS011;38317;53.084;6.960;2023-10-09T05:40:03;32.65;;;16.42;;
52386;SDS011;38317;53.084;6.960;2023-10-09T05:42:41;33.05;;;15.60;;
52386;SDS011;38317;53.084;6.960;2023-10-09T05:45:08;33.53;;;15.93;;
52386;SDS011;38317;53.084;6.960;2023-10-09T05:47:53;30.23;;;13.88;;
52386;SDS011;38317;53.084;6.960;2023-10-09T05:50:26;32.85;;;15.75;;
52386;SDS011;38317;53.084;6.960;2023-10-09T05:52:53;33.53;;;16.05;;
52386;SDS011;38317;53.084;6.960;2023-10-09T05:55:54;31.55;;;14.23;;
52386;SDS011;38317;53.084;6.960;2023-10-09T05:58:38;34.78;;;16.90;;
52386;SDS011;38317;53.084;6.960;2023-10-09T06:01:22;31.10;;;14.70;;
52386;SDS011;38317;53.084;6.960;2023-10-09T06:04:07;35.70;;;15.20;;
52386;SDS011;38317;53.084;6.960;2023-10-09T06:06:42;30.90;;;15.32;;
52386;SDS011;38317;53.084;6.960;2023-10-09T06:09:10;30.70;;;15.65;;
52386;SDS011;38317;53.084;6.960;2023-10-09T06:11:44;27.50;;;13.93;;
52386;SDS011;38317;53.084;6.960;2023-10-09T06:14:36;31.27;;;14.65;;
52386;SDS011;38317;53.084;6.960;2023-10-09T06:17:01;29.67;;;14.15;;
52386;SDS011;38317;53.084;6.960;2023-10-09T06:19:36;34.88;;;15.65;;
52386;SDS011;38317;53.084;6.960;2023-10-09T06:22:08;31.33;;;13.82;;
52386;SDS011;38317;53.084;6.960;2023-10-09T06:24:55;29.92;;;12.60;;
52386;SDS011;38317;53.084;6.960;2023-10-09T06:27:33;26.95;;;13.32;;
52386;SDS011;38317;53.084;6.960;2023-10-09T06:29:59;28.42;;;12.77;;
52386;SDS011;38317;53.084;6.960;2023-10-09T06:32:37;31.23;;;12.77;;
52386;SDS011;38317;53.084;6.960;2023-10-09T06:35:10;27.48;;;12.07;;
52386;SDS011;38317;53.084;6.960;2023-10-09T06:37:42;27.98;;;11.57;;
52386;SDS011;38317;53.084;6.960;2023-10-09T06:40:27;29.08;;;13.52;;
52386;SDS011;38317;53.084;6.960;2023-10-09T06:43:02;24.05;;;10.98;;
52386;SDS011;38317;53.084;6.960;2023-10-09T06:45:40;25.85;;;11.45;;
52386;SDS011;38317;53.084;6.960;2023-10-09T06:48:09;24.70;;;11.90;;
52386;SDS011;38317;53.084;6.960;2023-10-09T06:50:54;23.52;;;11.23;;
52386;SDS011;38317;53.084;6.960;2023-10-09T06:53:33;30.30;;;12.57;;
52386;SDS011;38317;53.084;6.960;2023-10-09T06:56:21;22.98;;;11.30;;
52386;SDS011;38317;53.084;6.960;2023-10-09T06:58:57;21.75;;;10.70;;
52386;SDS011;38317;53.084;6.960;2023-10-09T07:01:23;21.00;;;10.38;;
52386;SDS011;38317;53.084;6.960;2023-10-09T07:03:53;25.10;;;10.30;;
52386;SDS011;38317;53.084;6.960;2023-10-09T07:06:20;21.20;;;10.02;;
52386;SDS011;38317;53.084;6.960;2023-10-09T07:08:50;21.10;;;9.20;;
52386;SDS011;38317;53.084;6.960;2023-10-09T07:11:35;20.90;;;8.95;;
52386;SDS011;38317;53.084;6.960;2023-10-09T07:16:54;19.67;;;8.75;;
52386;SDS011;38317;53.084;6.960;2023-10-09T07:19:25;23.75;;;9.30;;
52386;SDS011;38317;53.084;6.960;2023-10-09T07:22:07;19.67;;;8.68;;
52386;SDS011;38317;53.084;6.960;2023-10-09T07:24:46;20.27;;;8.18;;
52386;SDS011;38317;53.084;6.960;2023-10-09T07:27:20;18.02;;;7.82;;
52386;SDS011;38317;53.084;6.960;2023-10-09T07:30:09;17.67;;;7.78;;
52386;SDS011;38317;53.084;6.960;2023-10-09T07:33:01;19.38;;;8.10;;
52386;SDS011;38317;53.084;6.960;2023-10-09T07:35:35;15.15;;;7.93;;
52386;SDS011;38317;53.084;6.960;2023-10-09T07:38:08;16.70;;;6.78;;
52386;SDS011;38317;53.084;6.960;2023-10-09T07:40:54;19.52;;;7.70;;
52386;SDS011;38317;53.084;6.960;2023-10-09T07:43:25;16.88;;;6.47;;
52386;SDS011;38317;53.084;6.960;2023-10-09T07:46:11;14.68;;;6.97;;
52386;SDS011;38317;53.084;6.960;2023-10-09T07:49:17;18.02;;;6.50;;
52386;SDS011;38317;53.084;6.960;2023-10-09T07:51:50;15.02;;;7.43;;
52386;SDS011;38317;53.084;6.960;2023-10-09T07:54:18;17.45;;;6.75;;
52386;SDS011;38317;53.084;6.960;2023-10-09T07:56:57;16.00;;;6.65;;
52386;SDS011;38317;53.084;6.960;2023-10-09T07:59:41;18.48;;;7.65;;
52386;SDS011;38317;53.084;6.960;2023-10-09T08:02:22;18.30;;;7.18;;
52386;SDS011;38317;53.084;6.960;2023-10-09T08:05:00;17.85;;;6.85;;
52386;SDS011;38317;53.084;6.960;2023-10-09T08:07:44;15.88;;;6.68;;
52386;SDS011;38317;53.084;6.960;2023-10-09T08:10:20;17.13;;;7.25;;
52386;SDS011;38317;53.084;6.960;2023-10-09T08:12:46;15.57;;;5.75;;
52386;SDS011;38317;53.084;6.960;2023-10-09T08:15:12;14.68;;;6.20;;
52386;SDS011;38317;53.084;6.960;2023-10-09T08:17:44;15.63;;;6.32;;
52386;SDS011;38317;53.084;6.960;2023-10-09T08:20:24;16.30;;;6.47;;
52386;SDS011;38317;53.084;6.960;2023-10-09T08:22:54;16.27;;;6.13;;
52386;SDS011;38317;53.084;6.960;2023-10-09T08:25:24;14.93;;;5.72;;
52386;SDS011;38317;53.084;6.960;2023-10-09T08:27:52;15.57;;;6.28;;
52386;SDS011;38317;53.084;6.960;2023-10-09T08:30:22;19.85;;;7.18;;
52386;SDS011;38317;53.084;6.960;2023-10-09T08:32:49;19.75;;;6.88;;
52386;SDS011;38317;53.084;6.960;2023-10-09T08:35:29;16.63;;;6.75;;
52386;SDS011;38317;53.084;6.960;2023-10-09T08:37:56;16.27;;;6.40;;
52386;SDS011;38317;53.084;6.960;2023-10-09T08:40:33;16.92;;;6.13;;
52386;SDS011;38317;53.084;6.960;2023-10-09T08:43:17;16.33;;;6.25;;
52386;SDS011;38317;53.084;6.960;2023-10-09T08:45:51;19.02;;;7.25;;
52386;SDS011;38317;53.084;6.960;2023-10-09T08:48:19;26.05;;;7.22;;
52386;SDS011;38317;53.084;6.960;2023-10-09T08:50:49;14.93;;;6.18;;
52386;SDS011;38317;53.084;6.960;2023-10-09T08:53:15;17.05;;;6.10;;
52386;SDS011;38317;53.084;6.960;2023-10-09T08:55:42;24.23;;;5.97;;
52386;SDS011;38317;53.084;6.960;2023-10-09T08:58:09;13.93;;;5.93;;
52386;SDS011;38317;53.084;6.960;2023-10-09T09:00:46;15.63;;;5.80;;
52386;SDS011;38317;53.084;6.960;2023-10-09T09:03:16;15.02;;;5.75;;
52386;SDS011;38317;53.084;6.960;2023-10-09T09:05:56;15.25;;;5.85;;
52386;SDS011;38317;53.084;6.960;2023-10-09T09:08:26;16.17;;;6.20;;
52386;SDS011;38317;53.084;6.960;2023-10-09T09:10:59;16.48;;;6.10;;
52386;SDS011;38317;53.084;6.960;2023-10-09T09:13:47;17.00;;;5.70;;
52386;SDS011;38317;53.084;6.960;2023-10-09T09:16:14;16.65;;;6.68;;
52386;SDS011;38317;53.084;6.960;2023-10-09T09:18:55;13.52;;;6.03;;
52386;SDS011;38317;53.084;6.960;2023-10-09T09:21:26;17.08;;;6.15;;
52386;SDS011;38317;53.084;6.960;2023-10-09T09:23:53;15.10;;;5.78;;
52386;SDS011;38317;53.084;6.960;2023-10-09T09:26:36;13.80;;;5.65;;
52386;SDS011;38317;53.084;6.960;2023-10-09T09:29:06;17.00;;;5.50;;
52386;SDS011;38317;53.084;6.960;2023-10-09T09:31:33;14.57;;;5.88;;
52386;SDS011;38317;53.084;6.960;2023-10-09T09:34:08;12.77;;;4.97;;
52386;SDS011;38317;53.084;6.960;2023-10-09T09:36:53;14.02;;;5.22;;
52386;SDS011;38317;53.084;6.960;2023-10-09T09:39:25;13.30;;;5.55;;
52386;SDS011;38317;53.084;6.960;2023-10-09T09:42:00;15.00;;;5.45;;
52386;SDS011;38317;53.084;6.960;2023-10-09T09:44:39;12.93;;;5.43;;
52386;SDS011;38317;53.084;6.960;2023-10-09T09:47:14;12.93;;;5.30;;
52386;SDS011;38317;53.084;6.960;2023-10-09T09:49:49;12.82;;;5.28;;
52386;SDS011;38317;53.084;6.960;2023-10-09T09:52:18;13.38;;;5.22;;
52386;SDS011;38317;53.084;6.960;2023-10-09T09:54:44;11.68;;;5.38;;
52386;SDS011;38317;53.084;6.960;2023-10-09T09:57:11;16.40;;;6.05;;
52386;SDS011;38317;53.084;6.960;2023-10-09T09:59:48;12.30;;;5.50;;
52386;SDS011;38317;53.084;6.960;2023-10-09T10:02:22;14.18;;;5.30;;
52386;SDS011;38317;53.084;6.960;2023-10-09T10:04:54;14.40;;;5.78;;
52386;SDS011;38317;53.084;6.960;2023-10-09T10:07:22;11.57;;;5.22;;
52386;SDS011;38317;53.084;6.960;2023-10-09T10:09:50;11.70;;;5.28;;
52386;SDS011;38317;53.084;6.960;2023-10-09T10:15:12;9.63;;;5.00;;
52386;SDS011;38317;53.084;6.960;2023-10-09T10:20:24;13.10;;;5.38;;
52386;SDS011;38317;53.084;6.960;2023-10-09T10:23:36;13.77;;;4.95;;
52386;SDS011;38317;53.084;6.960;2023-10-09T10:25:50;14.45;;;4.78;;
52386;SDS011;38317;53.084;6.960;2023-10-09T10:28:25;11.93;;;4.40;;
52386;SDS011;38317;53.084;6.960;2023-10-09T10:31:04;13.52;;;5.20;;
52386;SDS011;38317;53.084;6.960;2023-10-09T10:36:18;14.57;;;4.43;;
52386;SDS011;38317;53.084;6.960;2023-10-09T10:38:58;9.75;;;4.40;;
52386;SDS011;38317;53.084;6.960;2023-10-09T10:41:34;14.43;;;4.40;;
52386;SDS011;38317;53.084;6.960;2023-10-09T10:44:23;10.52;;;4.10;;
52386;SDS011;38317;53.084;6.960;2023-10-09T10:46:59;10.57;;;3.67;;
52386;SDS011;38317;53.084;6.960;2023-10-09T10:49:26;13.68;;;4.72;;
52386;SDS011;38317;53.084;6.960;2023-10-09T10:52:02;11.60;;;5.10;;
52386;SDS011;38317;53.084;6.960;2023-10-09T10:54:43;14.20;;;4.20;;
52386;SDS011;38317;53.084;6.960;2023-10-09T10:57:21;9.85;;;4.38;;
52386;SDS011;38317;53.084;6.960;2023-10-09T11:00:10;15.25;;;4.38;;
52386;SDS011;38317;53.084;6.960;2023-10-09T11:03:00;14.07;;;4.18;;
52386;SDS011;38317;53.084;6.960;2023-10-09T11:05:44;10.50;;;4.30;;
52386;SDS011;38317;53.084;6.960;2023-10-09T11:08:16;11.23;;;3.97;;
52386;SDS011;38317;53.084;6.960;2023-10-09T11:10:50;10.33;;;4.17;;
52386;SDS011;38317;53.084;6.960;2023-10-09T11:13:24;11.77;;;3.58;;
52386;SDS011;38317;53.084;6.960;2023-10-09T11:16:20;10.52;;;3.78;;
52386;SDS011;38317;53.084;6.960;2023-10-09T11:19:05;11.82;;;3.35;;
52386;SDS011;38317;53.084;6.960;2023-10-09T11:21:48;11.23;;;3.38;;
52386;SDS011;38317;53.084;6.960;2023-10-09T11:24:24;10.88;;;3.55;;
52386;SDS011;38317;53.084;6.960;2023-10-09T11:26:58;9.05;;;3.22;;
52386;SDS011;38317;53.084;6.960;2023-10-09T11:29:31;11.32;;;3.67;;
52386;SDS011;38317;53.084;6.960;2023-10-09T11:32:19;10.63;;;3.28;;
52386;SDS011;38317;53.084;6.960;2023-10-09T11:34:51;13.60;;;3.42;;
52386;SDS011;38317;53.084;6.960;2023-10-09T11:37:34;8.10;;;3.00;;
52386;SDS011;38317;53.084;6.960;2023-10-09T11:40:04;8.55;;;3.00;;
52386;SDS011;38317;53.084;6.960;2023-10-09T11:42:49;11.15;;;2.70;;
52386;SDS011;38317;53.084;6.960;2023-10-09T11:47:53;5.95;;;2.03;;
52386;SDS011;38317;53.084;6.960;2023-10-09T11:50:39;7.13;;;2.30;;
52386;SDS011;38317;53.084;6.960;2023-10-09T11:53:28;5.57;;;2.10;;
52386;SDS011;38317;53.084;6.960;2023-10-09T11:55:53;7.97;;;2.42;;
52386;SDS011;38317;53.084;6.960;2023-10-09T11:58:19;10.07;;;2.50;;
52386;SDS011;38317;53.084;6.960;2023-10-09T12:00:55;9.20;;;2.53;;
52386;SDS011;38317;53.084;6.960;2023-10-09T12:03:43;7.55;;;2.35;;
52386;SDS011;38317;53.084;6.960;2023-10-09T12:06:14;11.25;;;3.20;;
52386;SDS011;38317;53.084;6.960;2023-10-09T12:08:44;11.52;;;2.53;;
52386;SDS011;38317;53.084;6.960;2023-10-09T12:11:14;6.13;;;2.10;;
52386;SDS011;38317;53.084;6.960;2023-10-09T12:13:47;8.13;;;2.05;;
52386;SDS011;38317;53.084;6.960;2023-10-09T12:16:13;9.90;;;2.60;;
52386;SDS011;38317;53.084;6.960;2023-10-09T12:18:42;8.20;;;2.38;;
52386;SDS011;38317;53.084;6.960;2023-10-09T12:21:18;9.32;;;2.33;;
52386;SDS011;38317;53.084;6.960;2023-10-09T12:23:44;9.32;;;2.10;;
52386;SDS011;38317;53.084;6.960;2023-10-09T12:26:13;9.27;;;2.47;;
52386;SDS011;38317;53.084;6.960;2023-10-09T12:28:42;6.07;;;2.00;;
52386;SDS011;38317;53.084;6.960;2023-10-09T12:31:14;6.90;;;1.98;;
52386;SDS011;38317;53.084;6.960;2023-10-09T12:33:41;7.90;;;2.08;;
52386;SDS011;38317;53.084;6.960;2023-10-09T12:36:13;10.68;;;2.25;;
52386;SDS011;38317;53.084;6.960;2023-10-09T12:38:46;10.10;;;2.03;;
52386;SDS011;38317;53.084;6.960;2023-10-09T12:41:24;6.32;;;2.05;;
52386;SDS011;38317;53.084;6.960;2023-10-09T12:43:56;7.68;;;2.05;;
52386;SDS011;38317;53.084;6.960;2023-10-09T12:46:26;9.00;;;2.13;;
52386;SDS011;38317;53.084;6.960;2023-10-09T12:48:53;6.35;;;2.28;;
52386;SDS011;38317;53.084;6.960;2023-10-09T12:51:22;10.13;;;2.42;;
52386;SDS011;38317;53.084;6.960;2023-10-09T12:53:55;8.73;;;2.20;;
52386;SDS011;38317;53.084;6.960;2023-10-09T12:56:26;11.57;;;2.90;;
52386;SDS011;38317;53.084;6.960;2023-10-09T12:59:01;12.23;;;5.35;;
52386;SDS011;38317;53.084;6.960;2023-10-09T13:01:30;13.60;;;4.43;;
52386;SDS011;38317;53.084;6.960;2023-10-09T13:04:08;8.80;;;3.28;;
52386;SDS011;38317;53.084;6.960;2023-10-09T13:06:37;10.93;;;3.03;;
52386;SDS011;38317;53.084;6.960;2023-10-09T13:09:16;8.75;;;3.05;;
52386;SDS011;38317;53.084;6.960;2023-10-09T13:12:12;9.50;;;2.95;;
52386;SDS011;38317;53.084;6.960;2023-10-09T13:14:43;9.52;;;2.80;;
52386;SDS011;38317;53.084;6.960;2023-10-09T13:17:10;12.38;;;3.03;;
52386;SDS011;38317;53.084;6.960;2023-10-09T13:19:36;7.85;;;3.05;;
52386;SDS011;38317;53.084;6.960;2023-10-09T13:22:02;9.52;;;3.00;;
52386;SDS011;38317;53.084;6.960;2023-10-09T13:24:29;8.65;;;2.90;;
52386;SDS011;38317;53.084;6.960;2023-10-09T13:26:56;11.68;;;3.75;;
52386;SDS011;38317;53.084;6.960;2023-10-09T13:29:23;7.05;;;2.45;;
52386;SDS011;38317;53.084;6.960;2023-10-09T13:31:49;8.95;;;2.13;;
52386;SDS011;38317;53.084;6.960;2023-10-09T13:34:18;8.95;;;2.03;;
52386;SDS011;38317;53.084;6.960;2023-10-09T13:36:43;6.63;;;2.13;;
52386;SDS011;38317;53.084;6.960;2023-10-09T13:39:18;7.28;;;1.85;;
52386;SDS011;38317;53.084;6.960;2023-10-09T13:41:51;8.75;;;2.17;;
52386;SDS011;38317;53.084;6.960;2023-10-09T13:44:32;6.85;;;1.92;;
52386;SDS011;38317;53.084;6.960;2023-10-09T13:47:03;8.57;;;1.50;;
52386;SDS011;38317;53.084;6.960;2023-10-09T13:49:34;9.63;;;2.13;;
52386;SDS011;38317;53.084;6.960;2023-10-09T13:52:02;8.52;;;2.25;;
52386;SDS011;38317;53.084;6.960;2023-10-09T13:54:29;6.25;;;1.60;;
52386;SDS011;38317;53.084;6.960;2023-10-09T13:57:07;5.95;;;1.70;;
52386;SDS011;38317;53.084;6.960;2023-10-09T13:59:36;6.57;;;1.67;;
52386;SDS011;38317;53.084;6.960;2023-10-09T14:02:07;8.50;;;2.20;;
52386;SDS011;38317;53.084;6.960;2023-10-09T14:04:42;6.70;;;2.00;;
52386;SDS011;38317;53.084;6.960;2023-10-09T14:07:09;7.03;;;1.90;;
52386;SDS011;38317;53.084;6.960;2023-10-09T14:09:36;7.05;;;1.73;;
52386;SDS011;38317;53.084;6.960;2023-10-09T14:12:10;6.65;;;1.60;;
52386;SDS011;38317;53.084;6.960;2023-10-09T14:17:12;5.45;;;1.60;;
52386;SDS011;38317;53.084;6.960;2023-10-09T14:19:42;8.05;;;1.88;;
52386;SDS011;38317;53.084;6.960;2023-10-09T14:22:15;5.43;;;1.33;;
52386;SDS011;38317;53.084;6.960;2023-10-09T14:24:45;6.63;;;1.92;;
52386;SDS011;38317;53.084;6.960;2023-10-09T14:27:15;7.07;;;1.77;;
52386;SDS011;38317;53.084;6.960;2023-10-09T14:29:45;7.57;;;1.98;;
52386;SDS011;38317;53.084;6.960;2023-10-09T14:32:11;7.22;;;1.70;;
52386;SDS011;38317;53.084;6.960;2023-10-09T14:34:40;6.25;;;1.50;;
52386;SDS011;38317;53.084;6.960;2023-10-09T14:37:18;7.32;;;1.75;;
52386;SDS011;38317;53.084;6.960;2023-10-09T14:39:44;8.27;;;1.90;;
52386;SDS011;38317;53.084;6.960;2023-10-09T14:42:13;7.18;;;1.85;;
52386;SDS011;38317;53.084;6.960;2023-10-09T14:44:40;6.32;;;1.92;;
52386;SDS011;38317;53.084;6.960;2023-10-09T14:47:06;6.53;;;1.85;;
52386;SDS011;38317;53.084;6.960;2023-10-09T14:49:33;5.35;;;1.73;;
52386;SDS011;38317;53.084;6.960;2023-10-09T14:52:03;7.80;;;1.70;;
52386;SDS011;38317;53.084;6.960;2023-10-09T14:54:33;7.03;;;1.52;;
52386;SDS011;38317;53.084;6.960;2023-10-09T14:56:59;7.63;;;1.70;;
52386;SDS011;38317;53.084;6.960;2023-10-09T14:59:24;7.35;;;1.88;;
52386;SDS011;38317;53.084;6.960;2023-10-09T15:01:50;6.93;;;1.95;;
52386;SDS011;38317;53.084;6.960;2023-10-09T15:04:19;6.43;;;1.70;;
52386;SDS011;38317;53.084;6.960;2023-10-09T15:06:45;6.95;;;1.88;;
52386;SDS011;38317;53.084;6.960;2023-10-09T15:09:14;6.53;;;2.08;;
52386;SDS011;38317;53.084;6.960;2023-10-09T15:11:59;9.63;;;2.38;;
52386;SDS011;38317;53.084;6.960;2023-10-09T15:14:26;7.93;;;3.03;;
52386;SDS011;38317;53.084;6.960;2023-10-09T15:16:51;8.07;;;3.35;;
52386;SDS011;38317;53.084;6.960;2023-10-09T15:19:17;12.70;;;3.58;;
52386;SDS011;38317;53.084;6.960;2023-10-09T15:21:44;9.05;;;2.80;;
52386;SDS011;38317;53.084;6.960;2023-10-09T15:24:10;6.88;;;2.20;;
52386;SDS011;38317;53.084;6.960;2023-10-09T15:26:48;9.95;;;2.08;;
52386;SDS011;38317;53.084;6.960;2023-10-09T15:29:26;6.47;;;1.50;;
52386;SDS011;38317;53.084;6.960;2023-10-09T15:32:00;5.50;;;1.60;;
52386;SDS011;38317;53.084;6.960;2023-10-09T15:34:38;6.90;;;1.52;;